< < Back
Terminal Aerodrome Forecast


Current Version              Previous Versions:   1  2  3  4  5  6  7  8  9  

Terminal Aerodrome Forecast

184
FTUS42 KTAE 212300
TAFABY
TAF
KABY 212332Z 2200/2224 07007KT 4SM -DZ BR OVC006
     FM220600 07004KT 2SM -DZ BR OVC003
     FM221400 07005KT 4SM -DZ BR OVC006
     FM221800 08005KT 5SM -DZ BR OVC010=



Latest METAR

476
SAUS70 KWBC 220800 RRE
MTRABY
METAR KABY 220753Z 06008KT 2 1/2SM BR OVC004 09/09 A3003 RMK AO2 SLP168
T00940089


USA.gov is the U.S. government's official web portal to all federal, state and local government web resources and services.